Time;durP1;ratioP1;P1;durP2;ratioP2;P2;SDS_P1;SDS_P2;PMS_P1;PMS_P2;Temp;Humidity;BMP_temperature;BMP_pressure;BME280_temperature;BME280_humidity;BME280_pressure;Samples;Min_cycle;Max_cycle;Signal;HPM_P1;HPM_P2
2023/12/12 00:01:33;;;;;;;1.90;1.25;;;;;;;10.96;75.65;99016.44;5037507;28;20237;-80
2023/12/12 00:03:59;;;;;;;1.63;1.50;;;;;;;10.96;75.84;99006.75;5037489;28;20228;-80
2023/12/12 00:06:24;;;;;;;1.70;1.40;;;;;;;10.97;76.02;99005.81;5037487;28;20896;-80
2023/12/12 00:08:50;;;;;;;1.70;1.27;;;;;;;10.97;76.07;99021.59;5035863;28;20204;-80
2023/12/12 00:11:15;;;;;;;1.93;1.50;;;;;;;10.95;76.01;99022.66;5041430;28;20252;-81
2023/12/12 00:13:40;;;;;;;1.37;1.27;;;;;;;10.95;76.05;99025.28;5043832;28;20213;-80
2023/12/12 00:16:07;;;;;;;1.20;0.90;;;;;;;10.94;76.06;99021.00;5039569;28;20274;-80
2023/12/12 00:18:34;;;;;;;2.72;1.40;;;;;;;10.94;76.34;99018.38;5039112;28;20200;-80
2023/12/12 00:21:00;;;;;;;1.35;1.10;;;;;;;10.92;76.35;99018.47;5017071;28;20214;-80
2023/12/12 00:23:26;;;;;;;3.40;2.08;;;;;;;10.90;76.26;99030.88;5038021;28;20261;-80
2023/12/12 00:25:51;;;;;;;1.53;1.43;;;;;;;10.88;76.27;99024.88;5037347;28;20213;-80
2023/12/12 00:28:17;;;;;;;0.90;0.90;;;;;;;10.87;76.42;99023.22;5037931;28;20208;-80
2023/12/12 00:30:42;;;;;;;2.37;1.33;;;;;;;10.83;76.30;99013.91;5038367;28;20212;-81
2023/12/12 00:33:07;;;;;;;1.10;1.00;;;;;;;10.80;76.51;99008.84;5040849;28;20208;-80
2023/12/12 00:35:33;;;;;;;1.23;1.13;;;;;;;10.77;76.52;99006.47;5036449;28;20201;-80
2023/12/12 00:37:58;;;;;;;1.37;1.27;;;;;;;10.74;76.67;99007.53;5037187;28;20273;-80
2023/12/12 00:40:24;;;;;;;1.23;1.13;;;;;;;10.72;76.67;99024.34;5038339;28;20965;-81
2023/12/12 00:42:52;;;;;;;1.93;1.40;;;;;;;10.69;76.72;99029.84;5043338;28;20205;-80
2023/12/12 00:45:20;;;;;;;2.17;1.48;;;;;;;10.66;76.68;99025.63;5025263;28;20225;-80
2023/12/12 00:47:46;;;;;;;1.57;1.10;;;;;;;10.65;76.83;99023.13;5044078;28;20213;-80
2023/12/12 00:50:11;;;;;;;2.87;1.60;;;;;;;10.62;76.99;99025.03;5036563;28;20304;-80
2023/12/12 00:52:37;;;;;;;2.77;1.80;;;;;;;10.61;76.87;99023.38;5039453;28;20213;-80
2023/12/12 00:55:02;;;;;;;1.43;1.20;;;;;;;10.60;76.98;99019.06;5038600;28;20280;-80
2023/12/12 00:57:28;;;;;;;1.13;1.00;;;;;;;10.62;76.84;98993.53;5041400;28;20326;-80
2023/12/12 00:59:54;;;;;;;1.40;1.00;;;;;;;10.63;77.05;98976.81;5039122;28;20206;-80
2023/12/12 01:02:23;;;;;;;1.20;1.10;;;;;;;10.65;77.22;98976.69;5040602;28;20237;-81
2023/12/12 01:04:49;;;;;;;1.20;0.90;;;;;;;10.68;76.90;98997.47;5038209;28;20553;-80
2023/12/12 01:07:14;;;;;;;2.10;1.00;;;;;;;10.71;77.08;99002.50;5043958;28;20893;-81
2023/12/12 01:09:40;;;;;;;2.47;1.40;;;;;;;10.73;76.98;98995.34;5032268;28;20213;-80
2023/12/12 01:12:05;;;;;;;2.50;1.20;;;;;;;10.79;77.30;99001.94;5041039;28;20693;-80
2023/12/12 01:14:31;;;;;;;1.90;1.13;;;;;;;10.84;77.30;98982.25;5040123;28;20198;-80
2023/12/12 01:16:57;;;;;;;3.03;1.23;;;;;;;10.92;76.97;98989.56;5042997;28;20197;-80
2023/12/12 01:19:22;;;;;;;1.67;1.10;;;;;;;10.99;76.99;98997.81;5043586;28;20217;-80
2023/12/12 01:21:48;;;;;;;1.53;1.03;;;;;;;11.03;76.85;98994.84;5028661;28;20495;-80
2023/12/12 01:24:13;;;;;;;1.20;1.00;;;;;;;11.08;76.71;98984.00;5040833;28;20300;-81
2023/12/12 01:26:39;;;;;;;1.43;1.20;;;;;;;11.11;76.81;98982.94;5041148;28;20246;-81
2023/12/12 01:29:04;;;;;;;0.80;0.70;;;;;;;11.14;76.60;98980.91;5043288;28;20194;-80
2023/12/12 01:31:30;;;;;;;2.17;0.90;;;;;;;11.17;76.79;98987.72;5043570;28;20205;-80
2023/12/12 01:33:55;;;;;;;1.30;1.00;;;;;;;11.18;76.67;98974.47;5029990;28;20248;-80
2023/12/12 01:36:20;;;;;;;1.10;1.00;;;;;;;11.20;76.61;98982.22;5027464;28;20196;-80
2023/12/12 01:38:46;;;;;;;1.50;0.90;;;;;;;11.22;76.98;98996.91;5029354;28;20670;-80
2023/12/12 01:41:12;;;;;;;1.50;0.80;;;;;;;11.22;77.04;99002.19;5040917;28;20214;-80
2023/12/12 01:43:37;;;;;;;0.90;0.80;;;;;;;11.22;77.17;98991.66;5033991;28;20193;-80
2023/12/12 01:46:05;;;;;;;2.10;1.10;;;;;;;11.23;77.00;98971.47;5036166;28;20555;-80
2023/12/12 01:48:31;;;;;;;1.10;0.90;;;;;;;11.23;76.79;98947.81;5040958;28;20204;-80
2023/12/12 01:50:57;;;;;;;1.45;1.10;;;;;;;11.23;76.81;98961.81;5038825;28;20194;-80
2023/12/12 01:53:37;;;;;;;2.40;0.80;;;;;;;11.22;76.80;98964.53;5038555;28;20208;-80
2023/12/12 01:56:03;;;;;;;1.08;0.95;;;;;;;11.19;76.83;98975.28;5014956;28;20456;-80
2023/12/12 01:58:30;;;;;;;1.70;0.80;;;;;;;11.18;76.79;98981.50;5021535;28;20693;-80
2023/12/12 02:00:56;;;;;;;1.10;1.00;;;;;;;11.16;76.93;98984.25;5041522;28;20327;-80
2023/12/12 02:03:23;;;;;;;1.37;0.77;;;;;;;11.15;76.91;98982.59;5042735;28;20234;-80
2023/12/12 02:05:49;;;;;;;1.63;1.00;;;;;;;11.17;77.00;98977.19;5043456;28;20450;-80
2023/12/12 02:08:16;;;;;;;2.88;0.85;;;;;;;11.17;76.89;98967.50;5039993;28;20227;-80
2023/12/12 02:10:41;;;;;;;1.30;1.00;;;;;;;11.20;76.91;98969.91;5038148;28;20225;-80
2023/12/12 02:13:07;;;;;;;1.10;1.00;;;;;;;11.22;76.96;98956.66;5040579;28;20419;-80
2023/12/12 02:15:33;;;;;;;0.80;0.80;;;;;;;11.25;76.84;98959.88;5038197;28;20251;-80
2023/12/12 02:17:58;;;;;;;1.25;1.00;;;;;;;11.29;76.76;98952.63;5035848;28;20209;-80
2023/12/12 02:20:24;;;;;;;1.73;0.80;;;;;;;11.32;76.60;98959.44;5032242;28;20534;-80
2023/12/12 02:22:49;;;;;;;1.00;0.77;;;;;;;11.34;76.57;98962.75;5036064;28;20245;-80
2023/12/12 02:25:17;;;;;;;1.87;0.90;;;;;;;11.35;76.79;98961.81;5028523;28;20262;-80
2023/12/12 02:27:43;;;;;;;0.90;0.70;;;;;;;11.37;76.38;98954.63;5027979;28;20205;-80
2023/12/12 02:30:09;;;;;;;0.80;0.70;;;;;;;11.39;76.49;98950.91;5021577;28;20209;-79
2023/12/12 02:32:35;;;;;;;1.05;0.77;;;;;;;11.41;76.38;98953.44;5036404;28;20281;-82
2023/12/12 02:35:01;;;;;;;2.13;0.70;;;;;;;11.43;76.45;98951.53;5048359;28;20226;-81
2023/12/12 02:37:26;;;;;;;1.15;0.80;;;;;;;11.44;76.44;98947.94;5035920;28;20296;-80
2023/12/12 02:39:52;;;;;;;1.00;0.90;;;;;;;11.45;76.21;98941.72;5031032;28;20194;-81
2023/12/12 02:42:17;;;;;;;3.33;1.13;;;;;;;11.43;76.16;98959.44;5030701;28;20215;-79
2023/12/12 02:44:46;;;;;;;1.10;1.00;;;;;;;11.36;76.24;98950.34;5034190;28;20194;-77
2023/12/12 02:47:11;;;;;;;1.63;1.47;;;;;;;11.31;76.22;98953.31;5025400;28;20210;-80
2023/12/12 02:49:36;;;;;;;1.87;1.47;;;;;;;11.23;76.31;98948.66;5033117;28;20283;-77
2023/12/12 02:52:02;;;;;;;2.43;1.70;;;;;;;11.15;76.41;98937.91;5033047;28;20218;-78
2023/12/12 02:54:27;;;;;;;1.37;1.03;;;;;;;11.09;76.37;98938.34;5018938;28;20194;-81
2023/12/12 02:56:54;;;;;;;2.50;2.20;;;;;;;10.98;76.31;98935.72;5031592;28;20788;-82
2023/12/12 02:59:19;;;;;;;1.67;1.10;;;;;;;10.87;76.53;98926.00;5031195;28;20216;-83
2023/12/12 03:01:55;;;;;;;2.67;1.50;;;;;;;10.73;76.81;98919.19;5034134;28;20194;-82
2023/12/12 03:04:21;;;;;;;1.30;1.10;;;;;;;10.66;76.93;98919.75;5036473;28;20207;-81
2023/12/12 03:06:46;;;;;;;1.70;1.57;;;;;;;10.55;77.28;98910.03;5045658;28;20225;-81
2023/12/12 03:09:11;;;;;;;2.20;1.60;;;;;;;10.52;77.27;98897.16;5042570;28;20193;-80
2023/12/12 03:11:37;;;;;;;2.80;1.27;;;;;;;10.48;77.28;98898.34;5044161;28;20216;-81
2023/12/12 03:14:02;;;;;;;3.07;1.70;;;;;;;10.46;77.31;98905.50;5040788;28;20716;-81
2023/12/12 03:16:28;;;;;;;3.13;1.30;;;;;;;10.46;77.46;98897.63;5039251;28;20381;-81
2023/12/12 03:18:53;;;;;;;1.73;1.40;;;;;;;10.46;77.47;98893.19;5035324;28;20289;-80
2023/12/12 03:21:19;;;;;;;1.60;1.40;;;;;;;10.47;77.23;98894.03;5031880;28;20213;-81
2023/12/12 03:23:48;;;;;;;1.50;1.40;;;;;;;10.39;77.37;98891.97;5146353;22;20224;-76
2023/12/12 03:26:14;;;;;;;1.77;1.67;;;;;;;10.35;77.38;98898.41;5046252;28;20219;-77
2023/12/12 03:28:39;;;;;;;1.57;1.37;;;;;;;10.31;77.59;98889.06;5068015;28;20208;-78
2023/12/12 03:31:05;;;;;;;2.63;1.67;;;;;;;10.29;77.44;98876.09;5064594;28;20676;-78
2023/12/12 03:33:31;;;;;;;1.43;1.20;;;;;;;10.29;77.50;98870.84;5056362;28;20711;-77
2023/12/12 03:35:56;;;;;;;2.33;1.70;;;;;;;10.23;77.30;98876.47;5050185;28;20459;-77
2023/12/12 03:38:21;;;;;;;1.97;1.60;;;;;;;10.15;77.33;98884.09;5045819;28;20807;-77
2023/12/12 03:40:47;;;;;;;2.00;1.80;;;;;;;10.08;77.40;98882.88;5032050;28;20238;-77
2023/12/12 03:43:13;;;;;;;2.20;1.67;;;;;;;10.03;77.63;98883.22;5050366;28;20224;-77
2023/12/12 03:45:38;;;;;;;1.63;1.52;;;;;;;9.97;77.45;98879.25;5051752;28;20677;-78
2023/12/12 03:48:04;;;;;;;3.40;1.90;;;;;;;9.92;77.61;98883.97;5052089;28;20296;-77
2023/12/12 03:50:29;;;;;;;4.23;2.00;;;;;;;9.92;77.46;98891.84;5052077;28;20181;-77
2023/12/12 03:52:55;;;;;;;2.20;1.50;;;;;;;9.92;77.60;98891.03;5052551;28;20673;-77
2023/12/12 03:55:20;;;;;;;5.50;1.50;;;;;;;9.93;77.57;98888.28;5050113;28;20180;-78
2023/12/12 03:57:47;;;;;;;2.53;1.40;;;;;;;9.95;77.24;98880.31;5051864;28;20564;-78
2023/12/12 04:00:13;;;;;;;3.30;1.42;;;;;;;9.98;77.19;98880.91;5048382;28;20280;-78
2023/12/12 04:02:39;;;;;;;3.03;1.47;;;;;;;10.01;77.23;98876.41;5050363;28;20206;-77
2023/12/12 04:05:05;;;;;;;5.47;1.40;;;;;;;10.02;77.16;98875.44;5054239;28;21209;-77
2023/12/12 04:07:30;;;;;;;4.10;1.53;;;;;;;10.05;76.85;98880.47;5054344;28;20204;-78
2023/12/12 04:09:55;;;;;;;3.67;1.47;;;;;;;10.08;76.91;98870.59;5054467;28;20512;-78
2023/12/12 04:12:21;;;;;;;3.73;1.43;;;;;;;10.10;76.69;98860.81;5052165;28;20216;-77
2023/12/12 04:14:46;;;;;;;2.00;1.23;;;;;;;10.10;76.63;98857.34;5051283;28;20577;-77
2023/12/12 04:17:12;;;;;;;1.90;1.60;;;;;;;10.12;76.70;98863.31;5050639;28;20197;-77
2023/12/12 04:19:37;;;;;;;5.27;4.03;;;;;;;10.13;76.62;98857.13;5048674;28;20212;-78
2023/12/12 04:22:03;;;;;;;2.90;2.60;;;;;;;10.13;76.51;98860.59;5050373;28;20450;-78
2023/12/12 04:24:29;;;;;;;5.10;1.80;;;;;;;10.13;76.56;98851.91;5051944;28;20224;-78
2023/12/12 04:26:55;;;;;;;3.47;2.20;;;;;;;10.13;76.50;98865.00;5054625;28;20274;-77
2023/12/12 04:29:21;;;;;;;2.95;2.30;;;;;;;10.15;76.43;98868.34;5049591;28;20470;-78
2023/12/12 04:31:49;;;;;;;9.13;5.00;;;;;;;10.16;76.38;98867.41;5046768;28;20881;-77
2023/12/12 04:34:15;;;;;;;2.45;2.03;;;;;;;10.17;76.32;98861.19;5044362;28;20201;-77
2023/12/12 04:36:41;;;;;;;2.47;2.00;;;;;;;10.17;76.47;98867.28;5042101;28;20240;-77
2023/12/12 04:39:11;;;;;;;2.95;2.10;;;;;;;10.19;76.16;98868.00;5040640;28;20197;-78
2023/12/12 04:41:39;;;;;;;3.28;1.83;;;;;;;10.20;76.21;98872.28;5042179;28;20185;-78
2023/12/12 04:44:07;;;;;;;2.25;1.52;;;;;;;10.22;76.32;98856.44;5041058;28;20894;-77
2023/12/12 04:46:32;;;;;;;2.15;1.90;;;;;;;10.22;76.13;98853.00;5042764;28;20216;-78
2023/12/12 04:49:00;;;;;;;2.00;1.80;;;;;;;10.20;76.33;98845.22;5048265;28;20201;-78
2023/12/12 04:51:25;;;;;;;7.03;2.30;;;;;;;10.21;76.21;98833.78;5061415;28;20232;-77
2023/12/12 04:53:51;;;;;;;4.40;2.27;;;;;;;10.22;76.12;98830.19;5059687;28;20573;-78
2023/12/12 04:56:16;;;;;;;2.43;1.50;;;;;;;10.22;76.29;98832.81;5050251;28;20267;-78
2023/12/12 04:58:41;;;;;;;3.33;2.13;;;;;;;10.19;76.10;98828.63;5063501;28;20265;-78
2023/12/12 05:01:07;;;;;;;1.93;1.70;;;;;;;10.22;76.01;98832.00;5064770;28;20189;-77
2023/12/12 05:03:33;;;;;;;3.87;1.80;;;;;;;10.20;76.16;98832.09;5060034;28;20221;-78
2023/12/12 05:05:58;;;;;;;2.17;1.97;;;;;;;10.19;76.26;98826.00;5062988;28;20503;-78
2023/12/12 05:08:23;;;;;;;2.73;2.30;;;;;;;10.21;76.10;98825.91;5060268;28;21397;-77
2023/12/12 05:10:49;;;;;;;2.53;2.03;;;;;;;10.21;75.90;98825.91;5059629;28;20223;-77
2023/12/12 05:13:14;;;;;;;2.00;1.73;;;;;;;10.19;75.93;98828.63;5061756;28;20312;-77
2023/12/12 05:15:39;;;;;;;1.97;1.83;;;;;;;10.19;75.97;98812.06;5058957;28;20192;-77
2023/12/12 05:18:07;;;;;;;3.23;2.60;;;;;;;10.17;76.01;98813.97;5061849;28;20669;-77
2023/12/12 05:20:33;;;;;;;2.30;1.98;;;;;;;10.14;76.01;98801.91;5062563;28;20201;-77
2023/12/12 05:22:58;;;;;;;7.37;3.70;;;;;;;10.14;75.90;98793.19;5058986;28;20248;-78
2023/12/12 05:25:24;;;;;;;8.70;4.33;;;;;;;10.10;76.13;98791.75;5061487;28;20213;-78
2023/12/12 05:27:49;;;;;;;5.13;3.17;;;;;;;10.08;76.09;98778.75;5063383;28;20635;-77
2023/12/12 05:30:15;;;;;;;5.50;4.20;;;;;;;10.04;76.11;98782.53;5059164;28;20258;-77
2023/12/12 05:32:41;;;;;;;4.97;3.55;;;;;;;10.04;76.19;98781.72;5060872;28;20226;-77
2023/12/12 05:35:10;;;;;;;3.30;2.53;;;;;;;10.04;76.03;98772.03;5052096;28;20196;-77
2023/12/12 05:37:36;;;;;;;6.32;3.13;;;;;;;10.03;75.98;98767.75;5058858;28;20261;-77
2023/12/12 05:40:04;;;;;;;5.07;2.60;;;;;;;10.03;76.08;98759.06;5056632;28;20791;-78
2023/12/12 05:42:30;;;;;;;4.80;3.88;;;;;;;10.02;76.28;98755.59;5061506;28;20223;-77
2023/12/12 05:44:56;;;;;;;4.50;2.37;;;;;;;10.01;75.96;98755.72;5059434;28;20197;-77
2023/12/12 05:47:21;;;;;;;3.53;3.17;;;;;;;10.01;76.25;98748.66;5044477;28;20793;-77
2023/12/12 05:49:46;;;;;;;2.57;1.97;;;;;;;10.01;76.10;98746.03;5047550;28;20189;-77
2023/12/12 05:52:12;;;;;;;3.70;2.10;;;;;;;10.02;76.33;98752.97;5050313;28;20313;-77
2023/12/12 05:54:37;;;;;;;3.00;2.13;;;;;;;10.02;76.20;98766.09;5051587;28;20204;-77
2023/12/12 05:57:03;;;;;;;3.70;2.07;;;;;;;10.02;76.00;98773.97;5043778;28;20251;-77
2023/12/12 05:59:28;;;;;;;2.30;1.90;;;;;;;10.00;76.25;98773.25;5052022;28;20194;-77
2023/12/12 06:01:54;;;;;;;3.20;2.30;;;;;;;9.97;76.37;98776.94;5048044;28;20215;-76
2023/12/12 06:04:19;;;;;;;2.70;2.17;;;;;;;9.99;76.37;98776.81;5046408;28;20230;-78
2023/12/12 06:06:44;;;;;;;3.00;2.43;;;;;;;9.98;76.20;98781.22;5050303;28;20277;-78
2023/12/12 06:09:11;;;;;;;2.43;2.10;;;;;;;9.95;76.47;98780.63;5043837;28;20204;-78
2023/12/12 06:11:37;;;;;;;3.65;2.08;;;;;;;9.91;76.29;98782.63;5045939;28;20204;-78
2023/12/12 06:14:03;;;;;;;2.17;1.98;;;;;;;9.89;76.37;98773.22;5050899;28;20980;-78
2023/12/12 06:16:30;;;;;;;3.17;2.03;;;;;;;9.87;76.71;98775.94;5053873;28;20193;-78
2023/12/12 06:18:56;;;;;;;2.42;2.10;;;;;;;9.87;76.58;98765.44;5059918;28;20189;-78
2023/12/12 06:21:21;;;;;;;3.37;2.10;;;;;;;9.88;76.44;98755.78;5055874;28;20192;-77
2023/12/12 06:23:47;;;;;;;3.17;2.33;;;;;;;9.86;76.50;98740.16;5057800;28;20349;-78
2023/12/12 06:26:12;;;;;;;6.30;3.30;;;;;;;9.87;76.74;98741.00;5056422;28;20212;-78
2023/12/12 06:28:37;;;;;;;4.87;3.47;;;;;;;9.88;76.65;98740.03;5058545;28;20199;-78
2023/12/12 06:31:03;;;;;;;3.23;2.80;;;;;;;9.90;76.87;98748.63;5057579;28;20193;-78
2023/12/12 06:33:29;;;;;;;6.00;2.53;;;;;;;9.91;76.77;98732.81;5056102;28;20244;-78
2023/12/12 06:35:57;;;;;;;3.83;3.47;;;;;;;9.93;76.67;98732.66;5055472;28;20231;-78
2023/12/12 06:38:22;;;;;;;3.70;3.40;;;;;;;9.99;76.87;98747.97;5050647;28;20448;-77
2023/12/12 06:40:48;;;;;;;3.10;2.80;;;;;;;10.03;76.91;98757.25;5056998;28;20196;-77
2023/12/12 06:43:14;;;;;;;4.57;3.07;;;;;;;10.05;76.96;98754.53;5056907;28;20204;-77
2023/12/12 06:45:39;;;;;;;4.32;3.80;;;;;;;10.06;77.00;98756.19;5058236;28;20224;-77
2023/12/12 06:48:05;;;;;;;4.23;3.43;;;;;;;10.06;76.68;98743.91;5057688;28;20203;-77
2023/12/12 06:50:30;;;;;;;3.67;3.30;;;;;;;10.06;76.79;98743.91;5057043;28;20192;-78
2023/12/12 06:52:56;;;;;;;2.73;2.50;;;;;;;10.10;77.17;98739.25;5055492;28;20308;-78
2023/12/12 06:55:22;;;;;;;4.07;2.60;;;;;;;10.16;77.44;98744.91;5056556;28;20190;-77
2023/12/12 06:57:47;;;;;;;3.35;2.88;;;;;;;10.20;77.17;98735.81;5056149;28;20225;-77
2023/12/12 07:00:14;;;;;;;5.00;2.60;;;;;;;10.24;77.24;98739.06;5058342;28;20235;-78
2023/12/12 07:02:40;;;;;;;4.13;2.70;;;;;;;10.26;77.02;98745.03;5054595;28;20200;-78
2023/12/12 07:05:05;;;;;;;3.43;2.70;;;;;;;10.28;76.99;98742.31;5057255;28;20254;-78
2023/12/12 07:07:32;;;;;;;3.60;2.37;;;;;;;10.29;77.20;98743.97;5052228;28;20173;-77
2023/12/12 07:09:58;;;;;;;4.75;2.83;;;;;;;10.31;77.29;98731.59;5051843;28;20691;-77
2023/12/12 07:12:24;;;;;;;3.53;2.73;;;;;;;10.34;77.18;98732.19;5052267;28;20204;-77
2023/12/12 07:14:50;;;;;;;6.35;4.05;;;;;;;10.39;77.42;98742.34;5053351;28;20827;-78
2023/12/12 07:17:16;;;;;;;2.55;2.10;;;;;;;10.47;77.82;98739.13;5051330;28;20197;-77
2023/12/12 07:19:41;;;;;;;1.87;1.17;;;;;;;10.59;78.24;98746.06;5057252;28;20200;-78
2023/12/12 07:22:07;;;;;;;1.40;1.30;;;;;;;10.76;78.37;98745.56;5053690;28;20557;-78
2023/12/12 07:24:32;;;;;;;1.90;1.23;;;;;;;10.92;78.07;98734.69;5051594;28;20263;-78
2023/12/12 07:26:57;;;;;;;0.90;0.80;;;;;;;11.07;78.75;98740.50;5052735;28;20321;-78
2023/12/12 07:29:23;;;;;;;1.10;0.90;;;;;;;11.22;78.51;98746.34;5055301;28;20279;-78
2023/12/12 07:31:48;;;;;;;1.70;1.20;;;;;;;11.35;78.49;98746.22;5051563;28;20875;-78
2023/12/12 07:34:14;;;;;;;1.37;1.27;;;;;;;11.47;78.72;98748.66;5042250;28;20239;-78
2023/12/12 07:36:41;;;;;;;1.30;1.10;;;;;;;11.58;79.00;98745.16;5040661;28;21036;-78
2023/12/12 07:39:06;;;;;;;1.58;1.10;;;;;;;11.74;79.51;98750.84;5040746;28;20443;-78
2023/12/12 07:41:32;;;;;;;0.90;0.80;;;;;;;11.84;79.79;98744.84;5050433;28;20197;-79
2023/12/12 07:43:58;;;;;;;1.60;0.93;;;;;;;11.91;79.77;98738.97;5054122;28;20214;-77
2023/12/12 07:46:23;;;;;;;1.10;0.90;;;;;;;11.98;79.65;98733.19;5052268;28;20205;-78
2023/12/12 07:48:49;;;;;;;1.87;0.80;;;;;;;12.02;79.61;98738.09;5043333;28;20495;-78
2023/12/12 07:51:15;;;;;;;1.30;1.20;;;;;;;12.06;79.81;98731.59;5048808;28;20861;-78
2023/12/12 07:53:41;;;;;;;1.60;1.00;;;;;;;12.10;79.76;98730.38;5043537;28;20197;-78
2023/12/12 07:56:07;;;;;;;2.13;1.10;;;;;;;12.12;79.91;98715.31;5048071;28;20196;-78
2023/12/12 08:01:08;;;;;;;1.35;1.25;;;;;;;12.15;79.95;98711.53;5046222;28;20574;-78
2023/12/12 08:03:34;;;;;;;1.30;0.93;;;;;;;12.16;80.17;98707.97;5053013;28;20216;-78
2023/12/12 08:06:00;;;;;;;2.25;0.75;;;;;;;12.15;80.09;98693.13;5054354;28;20312;-78
2023/12/12 08:08:26;;;;;;;1.00;0.85;;;;;;;12.14;80.16;98702.00;5053119;28;20193;-78
2023/12/12 08:10:51;;;;;;;0.73;0.60;;;;;;;12.13;80.30;98703.78;5050985;28;20211;-77
2023/12/12 08:13:16;;;;;;;1.50;0.97;;;;;;;12.13;80.47;98698.53;5052423;28;20209;-78
2023/12/12 08:15:42;;;;;;;2.40;1.27;;;;;;;12.14;80.69;98700.19;5051728;28;20197;-77
2023/12/12 08:18:09;;;;;;;1.33;0.90;;;;;;;12.15;80.72;98699.25;5054808;28;20205;-77
2023/12/12 08:20:34;;;;;;;2.58;1.30;;;;;;;12.15;80.76;98683.44;5052851;28;20201;-78
2023/12/12 08:23:00;;;;;;;1.47;1.03;;;;;;;12.14;80.83;98668.59;5052567;28;20204;-78
2023/12/12 08:25:25;;;;;;;2.70;1.30;;;;;;;12.16;80.79;98661.41;5053639;28;20193;-77
2023/12/12 08:27:50;;;;;;;2.50;1.60;;;;;;;12.13;80.83;98666.94;5052424;28;20358;-77
2023/12/12 08:30:16;;;;;;;1.87;1.70;;;;;;;12.11;80.95;98668.88;5052493;28;20177;-78
2023/12/12 08:32:41;;;;;;;2.33;1.60;;;;;;;12.07;80.93;98672.72;5054059;28;20577;-77
2023/12/12 08:35:07;;;;;;;2.70;1.50;;;;;;;12.05;81.04;98677.28;5050088;28;20279;-77
2023/12/12 08:37:32;;;;;;;2.75;2.03;;;;;;;12.02;81.33;98693.34;5054112;28;20428;-77
2023/12/12 08:39:58;;;;;;;4.07;3.20;;;;;;;11.98;81.54;98697.19;5049578;28;20544;-77
2023/12/12 08:42:23;;;;;;;5.87;2.67;;;;;;;11.94;81.61;98699.25;5050728;28;20207;-77
2023/12/12 08:44:49;;;;;;;6.80;3.10;;;;;;;11.91;81.64;98703.94;5053051;28;20189;-77
2023/12/12 08:47:15;;;;;;;4.00;3.23;;;;;;;11.89;81.84;98706.69;5047695;28;20209;-77
2023/12/12 08:49:41;;;;;;;4.20;3.35;;;;;;;11.90;81.82;98712.78;5054440;28;20289;-78
2023/12/12 08:52:07;;;;;;;3.10;2.80;;;;;;;11.91;81.94;98714.47;5056493;28;20200;-77
2023/12/12 08:54:37;;;;;;;3.28;2.28;;;;;;;11.93;81.90;98712.50;5052779;28;20200;-78
2023/12/12 08:57:05;;;;;;;4.95;2.72;;;;;;;11.92;81.93;98716.13;5051256;28;20699;-78
2023/12/12 08:59:31;;;;;;;4.10;2.78;;;;;;;11.93;82.06;98717.78;5064223;28;20324;-78
2023/12/12 09:01:56;;;;;;;2.13;1.93;;;;;;;11.93;82.26;98721.25;5074221;28;20723;-78
2023/12/12 09:04:22;;;;;;;3.43;3.10;;;;;;;11.94;82.28;98716.84;5077837;28;20263;-78
2023/12/12 09:06:47;;;;;;;6.70;3.33;;;;;;;11.95;82.13;98721.94;5076931;28;20215;-78
2023/12/12 09:09:15;;;;;;;6.43;4.67;;;;;;;12.00;82.51;98718.94;5075898;28;20529;-75
2023/12/12 09:11:40;;;;;;;4.25;3.85;;;;;;;12.01;82.70;98712.72;5074664;28;20564;-75
2023/12/12 09:14:07;;;;;;;8.87;3.60;;;;;;;12.03;82.77;98718.69;5073333;28;20701;-74
2023/12/12 09:16:32;;;;;;;11.82;6.95;;;;;;;12.04;82.69;98715.09;5073647;28;20332;-75
2023/12/12 09:18:58;;;;;;;8.97;5.63;;;;;;;12.05;82.77;98710.69;5077808;28;20703;-74
2023/12/12 09:21:23;;;;;;;11.27;7.40;;;;;;;12.07;82.79;98704.31;5074802;28;20722;-74
2023/12/12 09:23:49;;;;;;;9.93;6.87;;;;;;;12.11;82.72;98699.63;5074119;28;20680;-74
2023/12/12 09:26:15;;;;;;;9.10;6.30;;;;;;;12.14;82.69;98705.44;5076414;28;20208;-74
2023/12/12 09:28:41;;;;;;;9.02;5.47;;;;;;;12.17;82.54;98702.56;5071538;28;20197;-74
2023/12/12 09:31:07;;;;;;;6.72;5.00;;;;;;;12.20;82.51;98698.00;5075002;28;20193;-77
2023/12/12 09:33:37;;;;;;;8.27;5.63;;;;;;;12.24;82.54;98686.25;5075650;28;20193;-74
2023/12/12 09:36:02;;;;;;;8.40;6.00;;;;;;;12.25;82.48;98685.28;5069531;28;20208;-74
2023/12/12 09:38:28;;;;;;;10.00;7.20;;;;;;;12.31;82.39;98690.00;5077950;28;20475;-74
2023/12/12 09:40:53;;;;;;;8.50;6.00;;;;;;;12.35;82.78;98676.47;5077006;28;20355;-74
2023/12/12 09:43:21;;;;;;;5.27;4.17;;;;;;;12.40;82.92;98676.09;5076187;28;21041;-74
2023/12/12 09:45:47;;;;;;;5.97;5.00;;;;;;;12.46;82.94;98661.53;5073736;28;20204;-74
2023/12/12 09:48:14;;;;;;;3.70;2.43;;;;;;;12.51;82.84;98667.25;5077245;28;20207;-74
2023/12/12 09:50:41;;;;;;;3.40;3.08;;;;;;;12.57;82.65;98674.63;5075656;28;20271;-74
2023/12/12 09:53:09;;;;;;;5.68;3.05;;;;;;;12.62;82.70;98664.50;5075702;28;20211;-75
2023/12/12 09:55:35;;;;;;;6.22;3.20;;;;;;;12.69;82.62;98649.00;5074264;28;20192;-74
2023/12/12 09:58:00;;;;;;;3.40;1.70;;;;;;;12.77;82.58;98649.16;5073481;28;20195;-75
2023/12/12 10:00:26;;;;;;;2.93;2.07;;;;;;;12.82;82.58;98634.59;5075597;28;20224;-75
2023/12/12 10:02:57;;;;;;;3.13;1.60;;;;;;;12.87;82.39;98636.84;5076066;28;20216;-74
2023/12/12 10:05:23;;;;;;;2.33;2.13;;;;;;;12.91;82.21;98632.97;5071982;28;21327;-73
2023/12/12 10:07:49;;;;;;;2.40;2.00;;;;;;;12.96;82.22;98628.13;5072795;28;20487;-77
2023/12/12 10:10:15;;;;;;;1.52;1.42;;;;;;;13.00;82.19;98616.31;5074287;28;20207;-78
2023/12/12 10:12:41;;;;;;;1.27;1.17;;;;;;;13.04;82.18;98612.47;5076428;28;20236;-78
2023/12/12 10:15:27;;;;;;;1.80;1.08;;;;;;;13.07;82.04;98606.06;5077983;28;20188;-79
2023/12/12 10:17:56;;;;;;;3.17;2.00;;;;;;;13.09;82.17;98600.66;5070055;28;20261;-78
2023/12/12 10:20:25;;;;;;;1.88;1.25;;;;;;;13.11;81.85;98599.53;5072554;28;20818;-78
2023/12/12 10:22:57;;;;;;;5.10;3.17;;;;;;;13.13;81.76;98602.88;5076483;28;20661;-77
2023/12/12 10:25:22;;;;;;;3.40;2.65;;;;;;;13.17;81.73;98598.16;5076733;28;20279;-79
2023/12/12 10:27:51;;;;;;;5.03;2.00;;;;;;;13.20;81.55;98595.22;5075327;28;20244;-77
2023/12/12 10:30:16;;;;;;;3.05;1.83;;;;;;;13.23;81.55;98589.69;5074716;28;20464;-78
2023/12/12 10:32:43;;;;;;;3.20;2.13;;;;;;;13.27;81.23;98577.94;5074245;28;20203;-76
2023/12/12 10:35:08;;;;;;;7.25;3.90;;;;;;;13.30;81.28;98569.72;5071827;28;20285;-78
2023/12/12 10:37:34;;;;;;;4.27;1.50;;;;;;;13.34;81.08;98573.75;5078737;28;20741;-77
2023/12/12 10:40:23;;;;;;;2.63;1.63;;;;;;;13.36;80.99;98566.53;5056955;28;20235;-77
2023/12/12 10:42:49;;;;;;;4.68;3.00;;;;;;;13.35;81.02;98558.75;5075917;28;20206;-78
2023/12/12 10:45:16;;;;;;;1.40;1.30;;;;;;;13.37;80.99;98549.75;5072550;28;20944;-78
2023/12/12 10:47:45;;;;;;;3.10;1.20;;;;;;;13.39;81.06;98547.78;5075059;28;20809;-78
2023/12/12 10:50:15;;;;;;;1.45;1.25;;;;;;;13.40;80.86;98549.44;5076354;28;20272;-78
2023/12/12 10:52:47;;;;;;;1.75;1.23;;;;;;;13.43;80.93;98545.72;5075001;28;20582;-79
2023/12/12 10:55:14;;;;;;;5.28;1.00;;;;;;;13.44;80.81;98556.09;5072165;28;20711;-77
2023/12/12 10:57:45;;;;;;;1.45;0.80;;;;;;;13.45;80.85;98533.22;5077383;28;20273;-78
2023/12/12 11:00:13;;;;;;;1.58;0.82;;;;;;;13.47;80.93;98525.97;5074161;28;20295;-77
2023/12/12 11:02:43;;;;;;;1.52;1.10;;;;;;;13.51;80.94;98511.53;5071635;28;20355;-79
2023/12/12 11:05:11;;;;;;;1.70;1.30;;;;;;;13.58;80.96;98511.78;5072199;28;20272;-78
2023/12/12 11:07:41;;;;;;;2.70;1.23;;;;;;;13.63;80.66;98505.09;5073939;28;20529;-78
2023/12/12 11:10:08;;;;;;;1.33;0.80;;;;;;;13.69;80.33;98487.84;5076636;28;20972;-77
2023/12/12 11:12:36;;;;;;;1.10;0.90;;;;;;;13.75;80.20;98497.03;5070791;28;20228;-79
2023/12/12 11:15:05;;;;;;;1.05;0.70;;;;;;;13.82;79.69;98490.16;5073549;28;20687;-78
2023/12/12 11:17:30;;;;;;;1.58;1.10;;;;;;;13.88;79.33;98477.22;5073939;28;20204;-78
2023/12/12 11:19:56;;;;;;;6.10;2.50;;;;;;;13.96;78.80;98473.88;5074794;28;20351;-77
2023/12/12 11:22:38;;;;;;;5.50;3.37;;;;;;;14.07;78.45;98470.16;5075650;28;20384;-80
2023/12/12 11:25:11;;;;;;;2.70;2.15;;;;;;;14.15;77.79;98472.91;5072895;28;20215;-80
2023/12/12 11:27:42;;;;;;;4.78;3.22;;;;;;;14.25;77.42;98463.09;5074897;28;20212;-79
2023/12/12 11:30:09;;;;;;;2.20;1.80;;;;;;;14.31;76.65;98459.03;5072177;28;20676;-78
2023/12/12 11:32:35;;;;;;;6.03;2.63;;;;;;;14.34;76.46;98467.50;5075703;28;20218;-79